Time;durP1;ratioP1;P1;durP2;ratioP2;P2;SDS_P1;SDS_P2;PMS_P1;PMS_P2;Temp;Humidity;BMP_temperature;BMP_pressure;BME280_temperature;BME280_humidity;BME280_pressure;Samples;Min_cycle;Max_cycle;Signal;HPM_P1;HPM_P2
2023/07/14 00:01:26;;;;;;;2.22;1.48;;;17.20;99.90;;;16.71;100.00;101312.03;3993193;29;20031;-74
2023/07/14 00:03:28;;;;;;;3.10;1.50;;;17.20;99.90;;;16.69;100.00;101306.91;3998009;29;20120;-74
2023/07/14 00:05:34;;;;;;;1.75;1.00;;;17.10;99.90;;;16.70;100.00;101294.38;3996836;29;20030;-74
2023/07/14 00:07:35;;;;;;;2.08;1.33;;;17.10;99.90;;;16.68;100.00;101291.09;3993186;29;20387;-74
2023/07/14 00:09:36;;;;;;;3.22;1.70;;;17.10;99.90;;;16.65;100.00;101297.59;3997992;29;20026;-74
2023/07/14 00:11:37;;;;;;;2.88;1.40;;;17.10;99.90;;;16.59;100.00;101282.34;3998022;29;20479;-74
2023/07/14 00:13:38;;;;;;;1.85;1.25;;;17.10;99.90;;;16.60;100.00;101278.69;3977094;29;20038;-75
2023/07/14 00:15:39;;;;;;;2.42;1.23;;;17.10;99.90;;;16.60;100.00;101281.34;3981742;29;20038;-74
2023/07/14 00:17:40;;;;;;;4.32;1.52;;;17.10;99.90;;;16.56;100.00;101280.88;3981950;29;20030;-74
2023/07/14 00:19:41;;;;;;;2.40;1.38;;;17.00;99.90;;;16.57;100.00;101274.56;4008081;29;20030;-74
2023/07/14 00:21:44;;;;;;;2.22;1.58;;;17.00;99.90;;;16.56;100.00;101270.22;3996984;29;20050;-74
2023/07/14 00:23:45;;;;;;;2.65;1.50;;;17.00;99.90;;;16.54;100.00;101277.59;3992514;29;20044;-74
2023/07/14 00:25:46;;;;;;;2.95;1.27;;;17.00;99.90;;;16.52;100.00;101271.56;3994294;29;20511;-74
2023/07/14 00:27:47;;;;;;;2.90;1.40;;;17.00;99.90;;;16.49;100.00;101281.75;3995938;29;20031;-74
2023/07/14 00:29:49;;;;;;;3.00;1.48;;;17.00;99.90;;;16.47;100.00;101265.97;3997679;29;20022;-74
2023/07/14 00:31:50;;;;;;;2.97;1.60;;;17.00;99.90;;;16.47;100.00;101257.13;3990988;29;20108;-74
2023/07/14 00:33:53;;;;;;;4.82;1.42;;;16.90;99.90;;;16.48;100.00;101245.50;3979238;29;20035;-74
2023/07/14 00:35:54;;;;;;;4.72;1.58;;;17.00;99.90;;;16.44;100.00;101242.34;3971983;29;20043;-74
2023/07/14 00:37:57;;;;;;;2.92;1.40;;;17.00;99.90;;;16.45;100.00;101249.34;3997709;29;20507;-74
2023/07/14 00:39:58;;;;;;;2.80;1.60;;;17.00;99.90;;;16.45;100.00;101259.16;3997552;29;20034;-74
2023/07/14 00:41:59;;;;;;;2.70;1.90;;;17.00;99.90;;;16.36;100.00;101238.94;3997444;29;20031;-74
2023/07/14 00:44:00;;;;;;;2.28;1.50;;;16.90;99.90;;;16.43;100.00;101261.16;3974456;29;20089;-74
2023/07/14 00:46:03;;;;;;;2.97;1.45;;;16.90;99.90;;;16.41;100.00;101244.56;3981468;29;20027;-74
2023/07/14 00:48:05;;;;;;;3.35;1.52;;;16.90;99.90;;;16.43;100.00;101242.53;3974935;29;20054;-74
2023/07/14 00:50:38;;;;;;;2.38;1.45;;;16.90;99.90;;;16.44;100.00;101246.84;3997415;29;20022;-74
2023/07/14 00:52:41;;;;;;;3.80;1.98;;;16.90;99.90;;;16.45;100.00;101248.50;3983378;29;20418;-74
2023/07/14 00:54:49;;;;;;;3.45;1.50;;;16.90;99.90;;;16.47;100.00;101236.66;3978317;29;20058;-74
2023/07/14 00:56:51;;;;;;;3.80;1.73;;;17.00;99.90;;;16.47;100.00;101234.00;3963551;29;20035;-75
2023/07/14 00:58:53;;;;;;;3.72;2.10;;;17.00;99.90;;;16.52;100.00;101239.59;3981429;29;20031;-74
2023/07/14 01:01:21;;;;;;;3.55;1.90;;;17.00;99.90;;;16.54;100.00;101226.97;3978324;29;20043;-74
2023/07/14 01:03:22;;;;;;;4.63;2.20;;;17.00;99.90;;;16.53;100.00;101219.13;3978517;29;20023;-74
2023/07/14 01:05:26;;;;;;;5.57;2.15;;;17.00;99.90;;;16.54;100.00;101226.16;3997148;29;20030;-74
2023/07/14 01:07:35;;;;;;;2.65;1.50;;;17.00;99.90;;;16.55;100.00;101212.63;3980951;29;20400;-74
2023/07/14 01:09:37;;;;;;;4.07;2.03;;;17.00;99.90;;;16.56;100.00;101202.81;3997242;29;20522;-74
2023/07/14 01:11:45;;;;;;;4.43;1.77;;;17.00;99.90;;;16.58;100.00;101206.94;3997099;29;20089;-74
2023/07/14 01:13:46;;;;;;;3.58;1.92;;;17.00;99.90;;;16.59;100.00;101208.59;3981305;29;20433;-74
2023/07/14 01:15:47;;;;;;;3.47;1.90;;;17.00;99.90;;;16.61;100.00;101215.59;3994848;29;20029;-74
2023/07/14 01:17:50;;;;;;;5.35;2.72;;;17.10;99.90;;;16.62;100.00;101211.91;3981058;29;20102;-74
2023/07/14 01:20:03;;;;;;;2.78;1.70;;;17.10;99.90;;;16.63;100.00;101202.91;3996047;29;20101;-74
2023/07/14 01:22:40;;;;;;;3.72;2.08;;;17.10;99.90;;;16.64;100.00;101201.88;3981512;29;20070;-74
2023/07/14 01:25:10;;;;;;;3.78;2.58;;;17.10;99.90;;;16.63;100.00;101202.91;4009854;29;20115;-74
2023/07/14 01:27:11;;;;;;;5.75;2.33;;;17.10;99.90;;;16.61;100.00;101210.28;3982821;29;20026;-74
2023/07/14 01:29:12;;;;;;;5.55;2.55;;;17.10;99.90;;;16.62;100.00;101207.41;3980934;29;20035;-74
2023/07/14 01:31:24;;;;;;;10.10;2.65;;;17.10;99.90;;;16.61;100.00;101205.75;4008160;29;20034;-74
2023/07/14 01:33:25;;;;;;;5.38;2.45;;;17.10;99.90;;;16.61;100.00;101207.59;3974812;29;20054;-74
2023/07/14 01:35:34;;;;;;;4.78;2.50;;;17.10;99.90;;;16.58;100.00;101201.63;3976223;29;20030;-74
2023/07/14 01:37:37;;;;;;;3.17;2.33;;;17.10;99.90;;;16.56;100.00;101182.34;3980830;29;20083;-74
2023/07/14 01:39:39;;;;;;;3.15;1.83;;;17.00;99.90;;;16.57;100.00;101192.00;3996030;29;20503;-74
2023/07/14 01:41:40;;;;;;;5.53;2.35;;;17.00;99.90;;;16.54;100.00;101195.03;3996892;29;20495;-74
2023/07/14 01:43:42;;;;;;;5.38;2.70;;;17.00;99.90;;;16.50;100.00;101196.34;3996780;29;20030;-74
2023/07/14 01:46:00;;;;;;;7.80;2.97;;;17.00;99.90;;;16.48;100.00;101193.06;3976412;29;20080;-74
2023/07/14 01:48:04;;;;;;;6.80;2.33;;;17.00;99.90;;;16.45;100.00;101190.75;3995776;29;20042;-74
2023/07/14 01:50:11;;;;;;;4.18;2.35;;;16.90;99.90;;;16.43;100.00;101176.78;3993743;29;20042;-74
2023/07/14 01:52:29;;;;;;;3.03;2.10;;;16.90;99.90;;;16.43;100.00;101181.28;3980816;29;20058;-74
2023/07/14 01:54:38;;;;;;;5.72;2.92;;;16.90;99.90;;;16.40;100.00;101181.63;3974350;29;20042;-74
2023/07/14 01:56:41;;;;;;;3.80;2.55;;;16.90;99.90;;;16.36;100.00;101181.22;3996623;29;20034;-74
2023/07/14 01:59:14;;;;;;;3.58;2.65;;;16.80;99.90;;;16.37;100.00;101169.53;3965633;29;20511;-74
2023/07/14 02:01:15;;;;;;;8.20;3.28;;;16.80;99.90;;;16.34;100.00;101167.22;3985935;29;20027;-74
2023/07/14 02:03:38;;;;;;;5.80;3.50;;;16.80;99.90;;;16.32;100.00;101160.44;3977536;29;20035;-74
2023/07/14 02:05:39;;;;;;;5.85;3.35;;;16.80;99.90;;;16.34;100.00;101166.41;3987139;29;20038;-74
2023/07/14 02:07:41;;;;;;;6.95;3.78;;;16.80;99.90;;;16.32;100.00;101158.59;3991269;29;20104;-74
2023/07/14 02:09:43;;;;;;;5.32;3.38;;;16.80;99.90;;;16.29;100.00;101136.84;3996461;29;20576;-74
2023/07/14 02:11:49;;;;;;;6.25;3.65;;;16.80;99.90;;;16.29;100.00;101137.69;3992421;29;20041;-74
2023/07/14 02:13:54;;;;;;;7.97;3.65;;;16.80;99.90;;;16.28;100.00;101133.34;3977219;29;20030;-74
2023/07/14 02:15:56;;;;;;;6.00;3.15;;;16.80;99.90;;;16.28;100.00;101129.84;3980338;29;20066;-74
2023/07/14 02:17:58;;;;;;;9.45;4.10;;;16.80;99.90;;;16.28;100.00;101129.84;3995342;29;20034;-74
2023/07/14 02:20:10;;;;;;;6.55;3.70;;;16.80;99.90;;;16.28;100.00;101119.22;3996193;29;20038;-74
2023/07/14 02:22:11;;;;;;;6.65;3.15;;;16.70;99.90;;;16.26;100.00;101114.09;3991282;29;20054;-74
2023/07/14 02:24:20;;;;;;;7.45;3.20;;;16.80;99.90;;;16.24;100.00;101108.13;3996235;29;20077;-74
2023/07/14 02:26:37;;;;;;;6.95;3.70;;;16.70;99.90;;;16.21;100.00;101108.50;3980008;29;20054;-74
2023/07/14 02:28:38;;;;;;;7.72;3.97;;;16.70;99.90;;;16.15;100.00;101109.22;3996422;29;20530;-74
2023/07/14 02:30:44;;;;;;;6.15;3.22;;;16.70;99.90;;;16.08;100.00;101108.28;3996393;29;20031;-74
2023/07/14 02:33:00;;;;;;;5.63;3.10;;;16.60;99.90;;;16.02;100.00;101109.03;3972920;29;20031;-74
2023/07/14 02:35:19;;;;;;;4.00;2.90;;;16.50;99.90;;;15.95;100.00;101097.44;3980284;29;20038;-74
2023/07/14 02:38:00;;;;;;;5.95;2.80;;;16.40;99.90;;;15.84;100.00;101092.56;3973997;29;20047;-74
2023/07/14 02:40:04;;;;;;;7.72;4.00;;;16.40;99.90;;;15.72;100.00;101084.22;3991659;29;20079;-74
2023/07/14 02:42:05;;;;;;;6.18;2.67;;;16.30;99.90;;;15.65;100.00;101071.84;3992013;29;20136;-74
2023/07/14 02:44:11;;;;;;;4.00;2.67;;;16.20;99.90;;;15.62;100.00;101080.97;3994478;29;20125;-74
2023/07/14 02:46:28;;;;;;;7.18;3.47;;;16.20;99.90;;;15.61;100.00;101078.50;3977132;29;20127;-74
2023/07/14 02:48:39;;;;;;;6.93;3.50;;;16.10;99.90;;;15.60;100.00;101074.19;3993003;29;20022;-74
2023/07/14 02:50:40;;;;;;;6.53;3.78;;;16.10;99.90;;;15.62;100.00;101077.50;3991741;29;20125;-74
2023/07/14 02:52:41;;;;;;;6.15;3.50;;;16.10;99.90;;;15.64;100.00;101067.50;3992103;29;20019;-74
2023/07/14 02:54:42;;;;;;;5.82;3.20;;;16.20;99.90;;;15.65;100.00;101064.66;3995902;29;20041;-74
2023/07/14 02:56:43;;;;;;;5.78;3.25;;;16.20;99.90;;;15.70;100.00;101061.47;3979457;29;20100;-74
2023/07/14 02:58:48;;;;;;;5.43;2.78;;;16.20;99.90;;;15.72;100.00;101059.44;3995753;29;20046;-74
2023/07/14 03:00:50;;;;;;;5.85;3.10;;;16.20;99.90;;;15.75;100.00;101062.56;3988472;29;20030;-74
2023/07/14 03:02:51;;;;;;;7.20;3.53;;;16.30;99.90;;;15.78;100.00;101064.88;3979464;29;20453;-74
2023/07/14 03:04:53;;;;;;;6.70;3.53;;;16.20;99.90;;;15.77;100.00;101062.41;3991591;29;20168;-74
2023/07/14 03:06:54;;;;;;;4.88;2.72;;;16.30;99.90;;;15.80;100.00;101068.16;3975195;29;20050;-74
2023/07/14 03:08:55;;;;;;;6.75;3.35;;;16.30;99.90;;;15.83;100.00;101067.00;3978636;29;20019;-74
2023/07/14 03:10:59;;;;;;;5.82;3.45;;;16.30;99.90;;;15.83;100.00;101061.69;3991762;29;20027;-74
2023/07/14 03:13:00;;;;;;;5.88;3.42;;;16.30;99.90;;;15.85;100.00;101059.66;3979366;29;20063;-74
2023/07/14 03:15:01;;;;;;;4.80;3.13;;;16.40;99.90;;;15.85;100.00;101049.00;3991390;29;20067;-74
2023/07/14 03:17:03;;;;;;;5.00;2.92;;;16.40;99.90;;;15.88;100.00;101052.13;3994491;29;20558;-74
2023/07/14 03:19:04;;;;;;;7.05;3.55;;;16.40;99.90;;;15.92;100.00;101049.91;3997311;29;20494;-74
2023/07/14 03:21:05;;;;;;;3.95;2.97;;;16.40;99.90;;;15.92;100.00;101031.28;3994251;29;20034;-74
2023/07/14 03:23:06;;;;;;;5.05;2.60;;;16.40;99.90;;;15.94;100.00;101029.28;3991812;29;20058;-74
2023/07/14 03:25:08;;;;;;;6.43;2.90;;;16.40;99.90;;;15.95;100.00;101026.44;3994240;29;20031;-74
2023/07/14 03:27:08;;;;;;;6.68;3.60;;;16.40;99.90;;;15.94;100.00;101016.00;3975463;29;20034;-74
2023/07/14 03:29:09;;;;;;;5.32;2.70;;;16.40;99.90;;;15.96;100.00;101005.97;3995406;29;20380;-74
2023/07/14 03:31:10;;;;;;;4.28;2.95;;;16.40;99.90;;;15.97;100.00;101004.97;3992827;29;20087;-74
2023/07/14 03:33:11;;;;;;;6.53;3.10;;;16.40;99.90;;;15.97;100.00;101002.31;3991522;29;20031;-74
2023/07/14 03:35:12;;;;;;;6.40;3.30;;;16.40;99.90;;;15.95;100.00;100999.81;3992758;29;20533;-74
2023/07/14 03:37:13;;;;;;;6.65;3.40;;;16.40;99.90;;;15.91;100.00;100995.91;3991665;29;20608;-74
2023/07/14 03:39:30;;;;;;;5.05;3.03;;;16.40;99.90;;;15.95;100.00;101001.66;3994958;29;20035;-74
2023/07/14 03:41:31;;;;;;;5.00;2.97;;;16.40;99.90;;;15.89;100.00;101000.56;3993922;29;20399;-74
2023/07/14 03:43:32;;;;;;;4.15;3.40;;;16.40;99.90;;;15.91;100.00;100990.59;3994091;29;20042;-74
2023/07/14 03:45:34;;;;;;;5.65;3.03;;;16.40;99.90;;;15.91;100.00;100979.09;3959109;30;20515;-74
2023/07/14 03:47:36;;;;;;;3.85;2.53;;;16.40;99.90;;;15.89;100.00;100978.44;3991907;29;20034;-74
2023/07/14 03:49:37;;;;;;;6.97;3.50;;;16.40;99.90;;;15.89;100.00;100973.13;3992340;29;20367;-74
2023/07/14 03:51:38;;;;;;;5.60;3.08;;;16.40;99.90;;;15.88;100.00;100974.16;3991508;29;20029;-74
2023/07/14 03:53:39;;;;;;;3.55;2.40;;;16.40;99.90;;;15.85;100.00;100962.06;3995215;29;20403;-74
2023/07/14 03:55:40;;;;;;;4.43;2.47;;;16.40;99.90;;;15.86;100.00;100965.53;3988162;29;20035;-74
2023/07/14 03:57:41;;;;;;;5.43;3.22;;;16.40;99.90;;;15.80;100.00;100955.66;3994466;29;20022;-74
2023/07/14 03:59:42;;;;;;;6.70;3.30;;;16.30;99.90;;;15.81;100.00;100965.25;3995306;29;20057;-74
2023/07/14 04:01:43;;;;;;;4.88;2.55;;;16.40;99.90;;;15.81;100.00;100963.44;3993752;29;20059;-74
2023/07/14 04:03:44;;;;;;;6.57;3.03;;;16.30;99.90;;;15.77;100.00;100961.34;3991112;29;20473;-74
2023/07/14 04:05:46;;;;;;;4.05;2.55;;;16.30;99.90;;;15.75;100.00;100958.00;3993460;29;20029;-74
2023/07/14 04:07:47;;;;;;;5.35;3.50;;;16.30;99.90;;;15.70;100.00;100944.44;3991163;29;20022;-74
2023/07/14 04:09:48;;;;;;;3.78;2.80;;;16.20;99.90;;;15.69;100.00;100950.75;3993767;29;20034;-74
2023/07/14 04:11:49;;;;;;;4.18;3.03;;;16.20;99.90;;;15.62;100.00;100952.53;3995219;29;20033;-74
2023/07/14 04:13:50;;;;;;;4.20;2.67;;;16.20;99.90;;;15.60;100.00;100951.88;3971596;29;20032;-74
2023/07/14 04:15:51;;;;;;;6.15;3.15;;;16.10;99.90;;;15.56;100.00;100958.59;3994708;29;20027;-74
2023/07/14 04:17:52;;;;;;;5.13;3.45;;;16.10;99.90;;;15.52;100.00;100936.00;3996584;29;21332;-74
2023/07/14 04:19:53;;;;;;;5.30;3.25;;;16.10;99.90;;;15.49;100.00;100938.03;3977588;29;20087;-74
2023/07/14 04:21:57;;;;;;;5.50;3.85;;;16.00;99.90;;;15.48;100.00;100931.06;3981402;29;20062;-74
2023/07/14 04:23:58;;;;;;;6.68;3.67;;;16.00;99.90;;;15.49;100.00;100926.56;3977824;29;20106;-74
2023/07/14 04:26:00;;;;;;;4.97;3.58;;;16.00;99.90;;;15.52;100.00;100925.38;3981688;29;20095;-74
2023/07/14 04:28:02;;;;;;;8.52;4.68;;;16.00;99.90;;;15.52;100.00;100922.72;3981526;29;20031;-74
2023/07/14 04:30:07;;;;;;;6.22;4.32;;;16.00;99.90;;;15.54;100.00;100923.34;3993654;29;20038;-74
2023/07/14 04:32:09;;;;;;;5.97;4.28;;;16.00;99.90;;;15.52;100.00;100910.25;3981603;29;20122;-74
2023/07/14 04:34:10;;;;;;;6.47;4.43;;;16.00;99.90;;;15.53;100.00;100913.75;3977308;29;20035;-74
2023/07/14 04:36:13;;;;;;;6.97;4.72;;;16.00;99.90;;;15.49;100.00;100910.63;3994056;29;20034;-74
2023/07/14 04:38:14;;;;;;;5.90;4.67;;;16.00;99.90;;;15.49;100.00;100910.63;3978067;29;20031;-74
2023/07/14 04:40:15;;;;;;;7.10;5.00;;;16.00;99.90;;;15.46;100.00;100901.16;3997171;29;20030;-74
2023/07/14 04:42:16;;;;;;;5.40;4.20;;;16.00;99.90;;;15.47;100.00;100897.50;3981165;29;20035;-74
2023/07/14 04:44:18;;;;;;;6.45;4.88;;;16.00;99.90;;;15.47;100.00;100904.66;3996048;29;20507;-74
2023/07/14 04:46:19;;;;;;;5.82;4.80;;;16.00;99.90;;;15.45;100.00;100902.16;3994510;29;20447;-74
2023/07/14 04:48:24;;;;;;;7.55;5.03;;;16.00;99.90;;;15.42;100.00;100893.72;3994980;29;20045;-74
2023/07/14 04:50:25;;;;;;;7.38;4.40;;;15.90;99.90;;;15.45;100.00;100891.53;3994005;29;20069;-74
2023/07/14 04:52:26;;;;;;;7.93;4.43;;;15.90;99.90;;;15.44;100.00;100891.72;3997148;29;20538;-74
2023/07/14 04:54:27;;;;;;;7.80;4.72;;;15.90;99.90;;;15.45;100.00;100893.34;3980888;29;20030;-74
2023/07/14 04:56:29;;;;;;;6.50;4.82;;;16.00;99.90;;;15.46;100.00;100885.19;3980066;29;20027;-74
2023/07/14 04:58:30;;;;;;;7.20;4.65;;;16.00;99.90;;;15.49;100.00;100892.84;4005578;29;20033;-74
2023/07/14 05:00:31;;;;;;;6.53;4.03;;;15.90;99.90;;;15.49;100.00;100890.19;3993288;29;20034;-74
2023/07/14 05:02:32;;;;;;;6.03;4.13;;;16.00;99.90;;;15.52;100.00;100872.19;3994112;29;20030;-74
2023/07/14 05:04:40;;;;;;;9.85;4.15;;;16.00;99.90;;;15.56;100.00;100865.53;3996414;29;20526;-74
2023/07/14 05:06:41;;;;;;;6.28;4.32;;;16.00;99.90;;;15.58;100.00;100859.00;3995847;29;20105;-74
2023/07/14 05:08:42;;;;;;;6.45;4.18;;;16.10;99.90;;;15.67;100.00;100857.06;3980573;29;20031;-74
2023/07/14 05:10:43;;;;;;;4.95;3.80;;;16.10;99.90;;;15.73;100.00;100851.00;3998873;29;20041;-74
2023/07/14 05:12:44;;;;;;;6.80;3.80;;;16.20;99.90;;;15.81;100.00;100856.19;3964145;30;20584;-74
2023/07/14 05:14:45;;;;;;;6.72;4.05;;;16.20;99.90;;;15.86;100.00;100851.97;3978995;29;20045;-74
2023/07/14 05:16:45;;;;;;;6.97;3.72;;;16.30;99.90;;;15.94;100.00;100840.41;3995652;29;20398;-74
2023/07/14 05:18:47;;;;;;;6.03;3.47;;;16.30;99.90;;;15.98;100.00;100831.00;3994271;29;20059;-74
2023/07/14 05:20:48;;;;;;;3.70;3.05;;;16.30;99.90;;;15.99;100.00;100822.84;3992784;29;20041;-74
2023/07/14 05:22:53;;;;;;;7.07;3.78;;;16.40;99.90;;;16.00;100.00;100813.88;3996725;29;20073;-74
2023/07/14 05:24:54;;;;;;;5.10;3.75;;;16.40;99.90;;;16.07;100.00;100819.22;3977271;29;20543;-74
2023/07/14 05:26:56;;;;;;;6.75;3.70;;;16.40;99.90;;;16.13;100.00;100813.16;3995787;29;20038;-74
2023/07/14 05:28:57;;;;;;;7.40;3.67;;;16.50;99.90;;;16.23;100.00;100812.84;3992372;29;20022;-74
2023/07/14 05:31:00;;;;;;;4.72;3.13;;;16.60;99.90;;;16.34;100.00;100794.50;3996756;29;20026;-74
2023/07/14 05:33:01;;;;;;;4.32;3.25;;;16.70;99.90;;;16.38;100.00;100801.09;3977068;29;20703;-74
2023/07/14 05:35:03;;;;;;;4.07;3.33;;;16.70;99.90;;;16.44;100.00;100792.34;3976582;29;20050;-74
2023/07/14 05:37:04;;;;;;;6.15;3.85;;;16.80;99.90;;;16.46;100.00;100789.47;3976810;29;20430;-74
2023/07/14 05:39:05;;;;;;;4.68;3.05;;;16.90;99.90;;;16.47;100.00;100783.97;3992720;29;20110;-74
2023/07/14 05:41:08;;;;;;;5.97;3.45;;;16.80;99.90;;;16.52;100.00;100781.53;3995718;29;20092;-74
2023/07/14 05:43:09;;;;;;;5.72;3.28;;;16.90;99.90;;;16.52;100.00;100792.19;3994135;29;20034;-74
2023/07/14 05:45:11;;;;;;;5.50;3.08;;;16.90;99.90;;;16.62;100.00;100789.22;3976407;29;20092;-74
2023/07/14 05:47:12;;;;;;;8.02;3.80;;;17.10;99.90;;;16.73;100.00;100791.34;3992643;29;20057;-74
2023/07/14 05:49:14;;;;;;;4.50;3.17;;;17.10;99.90;;;16.90;100.00;100789.22;3996677;29;20027;-74
2023/07/14 05:51:16;;;;;;;6.78;3.33;;;17.20;99.90;;;17.00;100.00;100789.66;3977156;29;20407;-74
2023/07/14 05:53:18;;;;;;;9.00;3.88;;;17.30;99.90;;;17.07;100.00;100779.88;4003035;29;20135;-74
2023/07/14 05:55:18;;;;;;;6.10;3.28;;;17.40;99.90;;;17.15;100.00;100782.38;3991696;29;20042;-74
2023/07/14 05:57:19;;;;;;;4.00;2.85;;;17.50;99.90;;;17.20;100.00;100769.28;3992503;29;20087;-74
2023/07/14 05:59:20;;;;;;;4.97;2.90;;;17.50;99.90;;;17.22;100.00;100771.75;3976247;29;20063;-74
2023/07/14 06:01:21;;;;;;;5.38;3.05;;;17.60;99.90;;;17.22;100.00;100758.41;3976318;29;20043;-74
2023/07/14 06:03:22;;;;;;;4.93;2.92;;;17.60;99.90;;;17.24;100.00;100759.84;3995288;29;20480;-74
2023/07/14 06:05:24;;;;;;;4.75;3.22;;;17.70;99.90;;;17.25;100.00;100758.03;3992204;29;20490;-74
2023/07/14 06:07:25;;;;;;;3.10;2.80;;;17.70;99.90;;;17.28;100.00;100758.44;3995142;29;20022;-74
2023/07/14 06:09:26;;;;;;;4.00;2.53;;;17.70;99.90;;;17.30;100.00;100753.72;3996469;29;20052;-74
2023/07/14 06:11:27;;;;;;;4.28;2.53;;;17.70;99.90;;;17.32;100.00;100756.22;3996144;29;20019;-74
2023/07/14 06:13:28;;;;;;;4.53;3.28;;;17.70;99.90;;;17.26;100.00;100746.34;3976062;29;20037;-74
2023/07/14 06:15:29;;;;;;;4.43;2.50;;;17.70;99.90;;;17.25;100.00;100724.19;3975957;29;20098;-74
2023/07/14 06:17:30;;;;;;;4.78;3.00;;;17.70;99.90;;;17.26;100.00;100728.50;3995081;29;20030;-74
2023/07/14 06:19:32;;;;;;;4.63;2.55;;;17.70;99.90;;;17.33;100.00;100724.00;3975907;29;20023;-74
2023/07/14 06:21:32;;;;;;;4.32;2.15;;;17.80;99.90;;;17.38;100.00;100718.09;3994980;29;20056;-74
2023/07/14 06:23:34;;;;;;;4.38;2.47;;;17.80;99.90;;;17.47;100.00;100719.56;3993409;29;20030;-75
2023/07/14 06:25:35;;;;;;;6.72;2.97;;;17.80;99.90;;;17.49;100.00;100720.16;3995054;29;20050;-74
2023/07/14 06:27:35;;;;;;;3.25;2.45;;;17.80;99.90;;;17.48;100.00;100724.66;3996308;29;20083;-74
2023/07/14 06:29:37;;;;;;;6.32;2.75;;;17.80;99.90;;;17.45;100.00;100714.41;3976146;29;20027;-74
2023/07/14 06:31:38;;;;;;;5.70;3.50;;;17.80;99.90;;;17.41;100.00;100707.81;3992102;29;20023;-74
2023/07/14 06:33:39;;;;;;;3.88;2.50;;;17.80;99.90;;;17.40;100.00;100700.84;3992052;29;20107;-74
2023/07/14 06:35:41;;;;;;;4.15;2.42;;;17.80;99.90;;;17.48;100.00;100702.50;3979591;29;20054;-74
2023/07/14 06:37:42;;;;;;;4.45;2.70;;;17.80;99.90;;;17.59;100.00;100705.44;3978438;29;20423;-74
2023/07/14 06:39:43;;;;;;;4.45;2.28;;;17.90;99.90;;;17.83;100.00;100695.22;3991991;29;20023;-74
2023/07/14 06:41:44;;;;;;;6.30;2.45;;;18.10;99.90;;;18.11;100.00;100691.31;3974992;29;20030;-74
2023/07/14 06:43:45;;;;;;;4.07;2.30;;;18.40;99.90;;;18.60;100.00;100696.22;3975825;29;20019;-74
2023/07/14 06:45:50;;;;;;;3.58;2.40;;;18.70;99.90;;;19.04;100.00;100705.31;3995747;29;20506;-74
2023/07/14 06:47:50;;;;;;;4.15;2.58;;;19.10;99.90;;;19.28;100.00;100707.28;3992173;29;20103;-74
2023/07/14 06:49:52;;;;;;;5.28;2.00;;;19.40;99.90;;;19.44;97.85;100697.97;3995677;29;20034;-74
2023/07/14 06:51:53;;;;;;;3.53;2.20;;;19.60;99.90;;;19.64;95.20;100688.78;3994796;29;20030;-74
2023/07/14 06:53:54;;;;;;;3.28;1.85;;;19.80;99.90;;;19.82;95.87;100686.19;3991742;29;20046;-74
2023/07/14 06:55:55;;;;;;;4.80;1.98;;;19.90;99.90;;;19.90;94.07;100679.72;3991765;29;20110;-74
2023/07/14 06:57:56;;;;;;;4.47;2.08;;;20.10;99.90;;;19.94;91.54;100677.44;3995747;29;20579;-74
2023/07/14 06:59:57;;;;;;;3.70;2.25;;;20.20;99.90;;;19.95;89.86;100679.09;3991765;29;20030;-74
2023/07/14 07:01:57;;;;;;;4.43;2.03;;;20.20;99.90;;;19.86;89.98;100678.53;3994672;29;20045;-74
2023/07/14 07:03:58;;;;;;;4.28;1.70;;;20.10;99.90;;;19.78;91.30;100674.25;3992905;29;20376;-74
2023/07/14 07:06:00;;;;;;;2.35;1.52;;;20.00;99.90;;;19.67;92.38;100669.63;3996695;29;20035;-74
2023/07/14 07:08:01;;;;;;;8.75;1.98;;;20.00;99.90;;;19.59;92.45;100675.22;3979090;29;20039;-74
2023/07/14 07:10:02;;;;;;;3.42;1.75;;;19.90;99.90;;;19.66;91.41;100661.78;3995526;29;20083;-74
2023/07/14 07:12:04;;;;;;;3.53;1.60;;;20.00;99.90;;;19.87;90.10;100653.38;3991751;29;20041;-74
2023/07/14 07:14:05;;;;;;;4.70;2.33;;;20.20;99.90;;;20.08;86.69;100654.84;3979423;29;20118;-74
2023/07/14 07:16:06;;;;;;;5.22;1.70;;;20.30;99.90;;;20.19;85.13;100660.31;3993360;29;20092;-74
2023/07/14 07:18:09;;;;;;;3.78;1.77;;;20.40;99.90;;;20.10;85.74;100661.63;3990155;29;20026;-74
2023/07/14 07:20:10;;;;;;;8.48;2.75;;;20.40;99.90;;;19.97;86.75;100666.28;3979188;29;20129;-74
2023/07/14 07:22:11;;;;;;;4.50;1.40;;;20.30;99.90;;;19.94;87.35;100656.00;4004197;29;20113;-74
2023/07/14 07:24:12;;;;;;;6.25;1.50;;;20.40;99.90;;;20.19;86.07;100660.31;3995448;29;20034;-74
2023/07/14 07:26:14;;;;;;;2.80;1.10;;;20.50;99.90;;;20.58;83.44;100656.44;3995483;29;20033;-74
2023/07/14 07:28:16;;;;;;;5.57;1.98;;;20.70;99.90;;;20.82;81.36;100650.16;3973259;29;20031;-74
2023/07/14 07:30:17;;;;;;;4.55;1.30;;;21.00;99.90;;;21.02;80.49;100657.16;3986498;29;20058;-74
2023/07/14 07:32:18;;;;;;;3.20;1.17;;;21.20;99.90;;;21.16;80.00;100654.09;3995492;29;20045;-74
2023/07/14 07:34:19;;;;;;;3.63;1.42;;;21.30;99.90;;;21.37;78.82;100652.78;3995432;29;20061;-74
2023/07/14 07:36:20;;;;;;;2.55;1.33;;;21.50;99.90;;;21.69;78.18;100656.00;3977135;29;20515;-74
2023/07/14 07:38:20;;;;;;;2.20;1.13;;;21.80;99.90;;;21.82;76.71;100645.88;3995449;29;20034;-74
2023/07/14 07:40:21;;;;;;;3.22;1.50;;;22.00;99.90;;;21.91;76.37;100655.25;3995321;29;20118;-74
2023/07/14 07:42:23;;;;;;;3.20;1.60;;;22.20;99.90;;;22.02;74.69;100649.06;3994238;29;20027;-74
2023/07/14 07:44:24;;;;;;;2.72;1.60;;;22.30;99.80;;;22.15;73.73;100656.09;3979320;29;20039;-74
2023/07/14 07:46:27;;;;;;;1.77;1.02;;;22.40;99.80;;;22.33;72.88;100644.41;3976597;29;20034;-74
2023/07/14 07:48:28;;;;;;;;;;;22.50;99.50;;;22.21;70.81;100636.34;3994674;29;20407;-74
2023/07/14 07:50:29;;;;;;;4.90;1.30;;;22.60;98.90;;;22.22;72.23;100637.16;3991391;29;19920;-74
2023/07/14 07:52:33;;;;;;;3.55;1.15;;;22.60;99.20;;;22.16;71.91;100640.78;3976410;29;20432;-74
2023/07/14 07:54:33;;;;;;;3.22;1.30;;;22.50;99.10;;;22.03;71.44;100639.97;3994095;29;20087;-74
2023/07/14 07:56:35;;;;;;;4.90;1.48;;;22.50;98.70;;;21.88;71.26;100628.88;3997105;29;20026;-74
2023/07/14 07:58:36;;;;;;;4.10;1.30;;;22.30;98.60;;;21.88;71.67;100630.72;3994165;29;20030;-74
2023/07/14 08:00:37;;;;;;;2.90;1.73;;;22.30;98.80;;;21.90;71.66;100634.81;3995091;29;20019;-74
2023/07/14 08:02:38;;;;;;;2.70;1.13;;;22.30;98.80;;;22.14;71.33;100640.19;3997290;29;20483;-74
2023/07/14 08:04:39;;;;;;;4.32;1.63;;;22.40;98.90;;;22.27;70.62;100624.66;3997544;29;20022;-74
2023/07/14 08:06:40;;;;;;;4.10;1.13;;;22.60;98.70;;;22.41;70.04;100625.22;3994002;29;20034;-74
2023/07/14 08:08:42;;;;;;;2.83;1.25;;;22.70;98.60;;;22.48;69.74;100628.59;3993946;29;20495;-74
2023/07/14 08:10:45;;;;;;;3.42;1.10;;;22.70;98.40;;;22.71;69.62;100623.19;3997897;29;20030;-76
2023/07/14 08:12:46;;;;;;;3.95;1.30;;;22.90;98.60;;;23.02;68.25;100620.06;3996924;29;20018;-76
2023/07/14 08:14:55;;;;;;;2.30;1.02;;;23.10;98.30;;;23.28;67.34;100615.13;3995579;29;20037;-76
2023/07/14 08:16:56;;;;;;;4.35;1.10;;;23.30;98.10;;;23.31;66.50;100606.56;3995519;29;20030;-75
2023/07/14 08:18:59;;;;;;;3.13;1.15;;;23.40;97.60;;;23.46;66.33;100594.22;3978037;29;20031;-76
2023/07/14 08:21:01;;;;;;;5.75;1.40;;;23.60;97.60;;;23.70;64.43;100602.97;3981450;29;20098;-76
2023/07/14 08:23:11;;;;;;;2.75;0.98;;;23.90;96.90;;;23.77;63.86;100595.53;3977631;29;20062;-76
2023/07/14 08:25:12;;;;;;;2.75;1.35;;;24.00;97.00;;;24.06;63.55;100602.44;3981852;29;20475;-76
2023/07/14 08:27:14;;;;;;;2.78;1.42;;;24.20;96.80;;;24.16;63.08;100596.41;3993840;29;20483;-76
2023/07/14 08:29:15;;;;;;;2.95;1.20;;;24.40;96.60;;;24.23;61.78;100607.81;3997531;29;20033;-76